createdAt,value
2023-05-22T00:01:02.183Z,19.85
2023-05-22T00:02:04.778Z,19.86
2023-05-22T00:03:08.464Z,19.87
2023-05-22T00:04:13.282Z,19.87
2023-05-22T00:05:15.687Z,19.89
2023-05-22T00:06:18.486Z,19.85
2023-05-22T00:07:20.742Z,19.84
2023-05-22T00:08:23.037Z,19.82
2023-05-22T00:09:26.261Z,19.78
2023-05-22T00:10:28.471Z,19.81
2023-05-22T00:11:30.834Z,19.83
2023-05-22T00:12:33.435Z,19.81
2023-05-22T00:13:35.620Z,19.81
2023-05-22T00:14:37.878Z,19.79
2023-05-22T00:15:40.067Z,19.78
2023-05-22T00:16:42.656Z,19.74
2023-05-22T00:17:44.951Z,19.72
2023-05-22T00:18:47.538Z,19.72
2023-05-22T00:19:49.923Z,19.69
2023-05-22T00:20:52.109Z,19.71
2023-05-22T00:21:54.332Z,19.70
2023-05-22T00:22:57.925Z,19.71
2023-05-22T00:24:01.578Z,19.74
2023-05-22T00:25:05.608Z,19.73
2023-05-22T00:26:07.934Z,19.67
2023-05-22T00:27:10.783Z,19.67
2023-05-22T00:28:13.584Z,19.65
2023-05-22T00:29:16.147Z,19.63
2023-05-22T00:30:18.690Z,19.61
2023-05-22T00:31:21.036Z,19.60
2023-05-22T00:32:24.055Z,19.62
2023-05-22T00:33:26.534Z,19.59
2023-05-22T00:34:28.755Z,19.59
2023-05-22T00:35:31.083Z,19.59
2023-05-22T00:36:33.265Z,19.58
2023-05-22T00:37:35.589Z,19.55
2023-05-22T00:38:38.139Z,19.51
2023-05-22T00:39:40.538Z,19.52
2023-05-22T00:40:42.757Z,19.49
2023-05-22T00:41:45.034Z,19.49
2023-05-22T00:42:47.406Z,19.48
2023-05-22T00:43:51.111Z,19.46
2023-05-22T00:44:53.517Z,19.50
2023-05-22T00:45:55.844Z,19.47
2023-05-22T00:46:58.110Z,19.43
2023-05-22T00:48:00.418Z,19.42
2023-05-22T00:49:03.123Z,19.41
2023-05-22T00:50:06.517Z,19.46
2023-05-22T00:51:09.128Z,19.40
2023-05-22T00:52:12.973Z,19.45
2023-05-22T00:53:15.801Z,19.38
2023-05-22T00:54:18.086Z,19.35
2023-05-22T00:55:20.312Z,19.33
2023-05-22T00:56:22.576Z,19.31
2023-05-22T00:57:25.378Z,19.33
2023-05-22T00:58:27.735Z,19.30
2023-05-22T00:59:31.189Z,19.27
2023-05-22T01:00:36.941Z,19.35
2023-05-22T01:01:42.133Z,19.24
2023-05-22T01:02:44.776Z,19.24
2023-05-22T01:03:47.901Z,19.24
2023-05-22T01:04:50.276Z,19.23
2023-05-22T01:05:53.760Z,19.26
2023-05-22T01:06:56.030Z,19.19
2023-05-22T01:07:58.865Z,19.19
2023-05-22T01:09:01.104Z,19.15
2023-05-22T01:10:05.994Z,19.22
2023-05-22T01:11:15.496Z,19.29
2023-05-22T01:12:44.872Z,19.30
2023-05-22T01:14:03.448Z,19.28
2023-05-22T01:15:06.097Z,19.10
2023-05-22T01:16:19.040Z,19.26
2023-05-22T01:17:53.402Z,19.22
2023-05-22T01:19:02.756Z,19.19
2023-05-22T01:20:41.840Z,19.15
2023-05-22T01:22:21.516Z,19.17
2023-05-22T01:23:26.467Z,19.07
2023-05-22T01:25:02.088Z,19.03
2023-05-22T01:26:07.225Z,19.04
2023-05-22T01:27:11.980Z,18.85
2023-05-22T01:28:32.521Z,19.02
2023-05-22T01:29:41.928Z,18.82
2023-05-22T01:30:49.031Z,18.94
2023-05-22T01:31:55.620Z,18.87
2023-05-22T01:32:59.746Z,18.77
2023-05-22T01:34:04.033Z,18.82
2023-05-22T01:35:11.644Z,18.86
2023-05-22T01:36:20.063Z,18.83
2023-05-22T01:37:24.310Z,18.77
2023-05-22T01:38:29.592Z,18.78
2023-05-22T01:39:32.372Z,18.69
2023-05-22T01:40:34.760Z,18.68
2023-05-22T01:41:40.778Z,18.78
2023-05-22T01:42:43.160Z,18.66
2023-05-22T01:43:46.237Z,18.69
2023-05-22T01:44:49.157Z,18.64
2023-05-22T01:45:51.557Z,18.61
2023-05-22T01:46:54.106Z,18.62
2023-05-22T01:47:56.300Z,18.58
2023-05-22T01:48:58.801Z,18.60
2023-05-22T01:50:01.585Z,18.59
2023-05-22T01:51:11.641Z,18.74
2023-05-22T01:52:38.714Z,18.69
2023-05-22T01:53:52.191Z,18.69
2023-05-22T01:55:05.107Z,18.63
2023-05-22T01:56:12.990Z,18.64
2023-05-22T01:57:26.870Z,18.67
2023-05-22T01:58:39.696Z,18.65
2023-05-22T01:59:48.586Z,18.67
2023-05-22T02:00:54.662Z,18.59
2023-05-22T02:02:00.719Z,18.57
2023-05-22T02:03:09.043Z,18.63
2023-05-22T02:04:13.632Z,18.51
2023-05-22T02:05:18.948Z,18.52
2023-05-22T02:06:21.283Z,18.45
2023-05-22T02:07:27.565Z,18.57
2023-05-22T02:08:31.541Z,18.56
2023-05-22T02:09:35.366Z,18.54
2023-05-22T02:10:39.194Z,18.51
2023-05-22T02:11:47.057Z,18.56
2023-05-22T02:12:49.386Z,18.48
2023-05-22T02:13:52.267Z,18.47
2023-05-22T02:14:55.216Z,18.47
2023-05-22T02:15:58.591Z,18.54
2023-05-22T02:17:02.183Z,18.49
2023-05-22T02:18:11.216Z,18.58
2023-05-22T02:19:15.386Z,18.51
2023-05-22T02:20:17.859Z,18.46
2023-05-22T02:21:20.131Z,18.42
2023-05-22T02:22:22.340Z,18.41
2023-05-22T02:23:25.027Z,18.44
2023-05-22T02:24:27.397Z,18.43
2023-05-22T02:25:29.764Z,18.41
2023-05-22T02:26:32.362Z,18.39
2023-05-22T02:27:35.823Z,18.38
2023-05-22T02:28:37.993Z,18.34
2023-05-22T02:29:41.751Z,18.34
2023-05-22T02:30:44.417Z,18.35
2023-05-22T02:31:46.659Z,18.34
2023-05-22T02:32:49.028Z,18.34
2023-05-22T02:33:51.279Z,18.34
2023-05-22T02:34:54.913Z,18.35
2023-05-22T02:35:57.169Z,18.33
2023-05-22T02:37:00.115Z,18.39
2023-05-22T02:38:03.394Z,18.34
2023-05-22T02:39:05.853Z,18.31
2023-05-22T02:40:10.087Z,18.34
2023-05-22T02:41:12.303Z,18.30
2023-05-22T02:42:14.498Z,18.31
2023-05-22T02:43:16.763Z,18.32
2023-05-22T02:44:19.152Z,18.29
2023-05-22T02:45:22.308Z,18.36
2023-05-22T02:46:24.544Z,18.31
2023-05-22T02:47:27.073Z,18.31
2023-05-22T02:48:29.449Z,18.31
2023-05-22T02:49:31.750Z,18.29
2023-05-22T02:50:33.959Z,18.29
2023-05-22T02:51:36.773Z,18.30
2023-05-22T02:52:39.319Z,18.31
2023-05-22T02:53:41.729Z,18.32
2023-05-22T02:54:44.389Z,18.28
2023-05-22T02:55:47.023Z,18.28
2023-05-22T02:56:49.430Z,18.26
2023-05-22T02:57:51.631Z,18.26
2023-05-22T02:58:53.875Z,18.23
2023-05-22T02:59:57.562Z,18.23
2023-05-22T03:00:59.979Z,18.25
2023-05-22T03:02:02.722Z,18.23
2023-05-22T03:03:05.875Z,18.22
2023-05-22T03:04:08.236Z,18.20
2023-05-22T03:05:10.506Z,18.18
2023-05-22T03:06:12.692Z,18.17
2023-05-22T03:07:14.878Z,18.17
2023-05-22T03:08:18.129Z,18.18
2023-05-22T03:09:20.345Z,18.13
2023-05-22T03:10:22.981Z,18.12
2023-05-22T03:11:25.686Z,18.10
2023-05-22T03:12:28.126Z,18.10
2023-05-22T03:13:30.370Z,18.10
2023-05-22T03:14:32.552Z,18.10
2023-05-22T03:15:34.749Z,18.08
2023-05-22T03:16:45.355Z,18.08
2023-05-22T03:17:47.631Z,18.07
2023-05-22T03:18:51.201Z,18.05
2023-05-22T03:19:53.495Z,18.02
2023-05-22T03:20:55.788Z,17.99
2023-05-22T03:21:58.136Z,18.04
2023-05-22T03:23:00.378Z,18.03
2023-05-22T03:24:03.273Z,18.06
2023-05-22T03:25:06.439Z,18.08
2023-05-22T03:26:08.609Z,18.03
2023-05-22T03:27:16.399Z,18.12
2023-05-22T03:28:18.829Z,18.02
2023-05-22T03:29:22.288Z,18.01
2023-05-22T03:30:24.762Z,18.01
2023-05-22T03:31:40.005Z,18.01
2023-05-22T03:32:46.189Z,17.99
2023-05-22T03:33:48.997Z,18.01
2023-05-22T03:34:51.485Z,17.98
2023-05-22T03:35:53.777Z,17.99
2023-05-22T03:36:58.001Z,17.98
2023-05-22T03:38:00.664Z,17.99
2023-05-22T03:39:04.066Z,18.07
2023-05-22T03:40:10.191Z,18.01
2023-05-22T03:41:12.395Z,18.03
2023-05-22T03:42:14.553Z,18.08
2023-05-22T03:43:16.749Z,18.08
2023-05-22T03:44:19.296Z,18.06
2023-05-22T03:45:21.575Z,18.04
2023-05-22T03:46:24.107Z,18.07
2023-05-22T03:47:26.560Z,18.03
2023-05-22T03:48:28.839Z,18.05
2023-05-22T03:49:31.085Z,18.05
2023-05-22T03:50:33.245Z,18.05
2023-05-22T03:51:35.657Z,18.06
2023-05-22T03:52:38.333Z,18.08
2023-05-22T03:53:40.522Z,18.04
2023-05-22T03:54:42.707Z,18.07
2023-05-22T03:55:44.914Z,18.06
2023-05-22T03:56:47.130Z,18.06
2023-05-22T03:57:49.327Z,18.05
2023-05-22T03:58:52.863Z,18.04
2023-05-22T03:59:55.282Z,18.05
2023-05-22T04:00:58.674Z,18.04
2023-05-22T04:02:05.539Z,18.20
2023-05-22T04:03:12.939Z,18.06
2023-05-22T04:04:16.505Z,18.05
2023-05-22T04:05:18.827Z,18.07
2023-05-22T04:06:21.813Z,18.09
2023-05-22T04:07:24.139Z,18.06
2023-05-22T04:08:26.375Z,18.06
2023-05-22T04:09:32.056Z,18.19
2023-05-22T04:10:35.784Z,18.07
2023-05-22T04:11:42.215Z,18.18
2023-05-22T04:12:44.500Z,18.11
2023-05-22T04:13:49.815Z,18.18
2023-05-22T04:14:52.006Z,18.14
2023-05-22T04:15:54.332Z,18.11
2023-05-22T04:16:56.529Z,18.11
2023-05-22T04:17:58.713Z,18.10
2023-05-22T04:19:03.292Z,18.10
2023-05-22T04:20:06.569Z,18.11
2023-05-22T04:21:09.830Z,18.08
2023-05-22T04:22:12.125Z,18.08
2023-05-22T04:23:14.367Z,18.06
2023-05-22T04:24:16.561Z,18.08
2023-05-22T04:25:18.726Z,18.11
2023-05-22T04:26:20.933Z,18.10
2023-05-22T04:27:23.209Z,18.10
2023-05-22T04:28:26.741Z,18.09
2023-05-22T04:29:29.300Z,18.12
2023-05-22T04:30:37.376Z,18.15
2023-05-22T04:31:40.153Z,18.13
2023-05-22T04:32:43.638Z,18.18
2023-05-22T04:33:48.301Z,18.14
2023-05-22T04:34:53.500Z,18.15
2023-05-22T04:35:55.866Z,18.16
2023-05-22T04:36:58.161Z,18.14
2023-05-22T04:38:03.562Z,18.14
2023-05-22T04:39:05.791Z,18.10
2023-05-22T04:40:08.898Z,18.18
2023-05-22T04:41:13.456Z,18.22
2023-05-22T04:42:16.122Z,18.19
2023-05-22T04:43:18.837Z,18.19
2023-05-22T04:44:23.994Z,18.21
2023-05-22T04:45:28.636Z,18.28
2023-05-22T04:46:36.533Z,18.29
2023-05-22T04:47:41.718Z,18.22
2023-05-22T04:48:44.413Z,18.30
2023-05-22T04:49:46.672Z,18.33
2023-05-22T04:50:49.935Z,18.33
2023-05-22T04:51:54.039Z,18.28
2023-05-22T04:52:57.437Z,18.29
2023-05-22T04:53:59.992Z,18.30
2023-05-22T04:55:05.200Z,18.30
2023-05-22T04:56:08.310Z,18.34
2023-05-22T04:57:10.740Z,18.34
2023-05-22T04:58:13.106Z,18.35
2023-05-22T04:59:16.425Z,18.32
2023-05-22T05:00:19.276Z,18.30
2023-05-22T05:01:22.779Z,18.31
2023-05-22T05:02:25.193Z,18.31
2023-05-22T05:03:28.497Z,18.35
2023-05-22T05:04:31.163Z,18.40
2023-05-22T05:05:34.112Z,18.40
2023-05-22T05:06:37.814Z,18.37
2023-05-22T05:07:40.324Z,18.46
2023-05-22T05:08:44.343Z,18.49
2023-05-22T05:09:46.699Z,18.56
2023-05-22T05:10:49.016Z,18.58
2023-05-22T05:11:52.713Z,18.71
2023-05-22T05:12:55.003Z,18.74
2023-05-22T05:13:57.309Z,18.73
2023-05-22T05:14:59.517Z,18.71
2023-05-22T05:16:01.779Z,18.75
2023-05-22T05:17:04.714Z,18.81
2023-05-22T05:18:08.670Z,18.86
2023-05-22T05:19:11.147Z,18.87
2023-05-22T05:20:14.602Z,18.88
2023-05-22T05:21:16.950Z,18.96
2023-05-22T05:22:19.652Z,18.92
2023-05-22T05:23:22.849Z,18.99
2023-05-22T05:24:25.169Z,19.05
2023-05-22T05:25:27.427Z,19.01
2023-05-22T05:26:29.848Z,19.04
2023-05-22T05:27:33.394Z,19.05
2023-05-22T05:28:37.548Z,19.16
2023-05-22T05:29:41.365Z,19.03
2023-05-22T05:30:58.313Z,19.01
2023-05-22T05:32:13.003Z,18.99
2023-05-22T05:33:29.058Z,19.11
2023-05-22T05:34:37.533Z,19.08
2023-05-22T05:35:43.226Z,19.16
2023-05-22T05:36:48.005Z,19.19
2023-05-22T05:37:51.720Z,19.12
2023-05-22T05:38:54.244Z,19.08
2023-05-22T05:39:56.833Z,19.09
2023-05-22T05:40:59.195Z,19.15
2023-05-22T05:42:02.444Z,19.16
2023-05-22T05:43:05.869Z,19.17
2023-05-22T05:44:10.781Z,19.19
2023-05-22T05:45:14.120Z,19.25
2023-05-22T05:46:17.426Z,19.22
2023-05-22T05:47:19.695Z,19.13
2023-05-22T05:48:21.972Z,19.14
2023-05-22T05:49:24.737Z,19.16
2023-05-22T05:50:27.246Z,19.16
2023-05-22T05:51:30.047Z,19.06
2023-05-22T05:52:33.488Z,19.05
2023-05-22T05:53:41.020Z,19.09
2023-05-22T05:54:47.416Z,19.04
2023-05-22T05:55:52.032Z,19.04
2023-05-22T05:56:55.060Z,19.08
2023-05-22T05:57:57.394Z,19.06
2023-05-22T05:59:19.948Z,19.06
2023-05-22T06:00:42.361Z,19.17
2023-05-22T06:01:46.216Z,19.08
2023-05-22T06:02:55.179Z,18.99
2023-05-22T06:04:08.948Z,18.99
2023-05-22T06:05:13.537Z,18.91
2023-05-22T06:06:17.529Z,18.87
2023-05-22T06:07:39.697Z,18.82
2023-05-22T06:08:44.183Z,18.81
2023-05-22T06:09:46.510Z,18.75
2023-05-22T06:11:08.971Z,18.60
2023-05-22T06:12:14.276Z,18.47
2023-05-22T06:13:19.676Z,18.24
2023-05-22T06:14:22.423Z,17.93
2023-05-22T06:15:25.181Z,17.82
2023-05-22T06:16:28.381Z,17.56
2023-05-22T06:17:30.822Z,17.45
2023-05-22T06:18:33.406Z,17.38
2023-05-22T06:19:36.040Z,17.27
2023-05-22T06:20:39.489Z,17.14
2023-05-22T06:21:42.209Z,17.04
2023-05-22T06:22:44.548Z,16.93
2023-05-22T06:23:47.981Z,16.82
2023-05-22T06:24:50.349Z,16.76
2023-05-22T06:25:55.647Z,16.72
2023-05-22T06:26:58.856Z,16.66
2023-05-22T06:28:01.952Z,16.64
2023-05-22T06:29:05.400Z,16.63
2023-05-22T06:30:10.268Z,16.60
2023-05-22T06:31:14.697Z,16.57
2023-05-22T06:32:20.367Z,16.44
2023-05-22T06:33:23.632Z,16.41
2023-05-22T06:34:27.665Z,16.40
2023-05-22T06:35:31.714Z,16.48
2023-05-22T06:36:34.787Z,16.43
2023-05-22T06:37:38.554Z,16.41
2023-05-22T06:38:41.431Z,16.37
2023-05-22T06:39:54.548Z,16.34
2023-05-22T06:41:08.184Z,16.33
2023-05-22T06:42:10.725Z,16.28
2023-05-22T06:43:31.214Z,16.28
2023-05-22T06:44:42.659Z,16.37
2023-05-22T06:45:44.897Z,16.43
2023-05-22T06:47:11.295Z,16.39
2023-05-22T06:48:13.603Z,16.36
2023-05-22T06:49:29.130Z,16.28
2023-05-22T06:50:31.487Z,16.29
2023-05-22T06:51:34.372Z,16.31
2023-05-22T06:52:40.072Z,16.29
2023-05-22T06:53:44.012Z,16.27
2023-05-22T06:54:50.355Z,16.21
2023-05-22T06:55:52.733Z,16.23
2023-05-22T06:57:04.472Z,16.17
2023-05-22T06:58:07.162Z,16.19
2023-05-22T06:59:11.894Z,16.24
2023-05-22T07:00:37.056Z,16.30
2023-05-22T07:01:44.701Z,16.19
2023-05-22T07:02:50.562Z,16.17
2023-05-22T07:04:05.280Z,16.22
2023-05-22T07:05:11.157Z,16.23
2023-05-22T07:06:42.536Z,16.12
2023-05-22T07:07:46.416Z,16.10
2023-05-22T07:08:49.396Z,15.99
2023-05-22T07:09:52.292Z,16.00
2023-05-22T07:10:54.550Z,15.99
2023-05-22T07:11:57.068Z,15.96
2023-05-22T07:12:59.853Z,15.96
2023-05-22T07:14:02.707Z,15.90
2023-05-22T07:15:05.422Z,15.92
2023-05-22T07:16:07.834Z,15.91
2023-05-22T07:17:10.763Z,15.88
2023-05-22T07:18:17.352Z,15.75
2023-05-22T07:19:20.055Z,15.70
2023-05-22T07:20:22.726Z,15.70
2023-05-22T07:21:47.278Z,15.79
2023-05-22T07:22:53.064Z,15.77
2023-05-22T07:23:55.259Z,15.75
2023-05-22T07:24:58.248Z,15.76
2023-05-22T07:26:05.624Z,15.76
2023-05-22T07:27:12.397Z,15.73
2023-05-22T07:28:15.162Z,15.65
2023-05-22T07:29:26.723Z,15.65
2023-05-22T07:30:30.761Z,15.66
2023-05-22T07:31:34.502Z,15.65
2023-05-22T07:32:37.938Z,15.63
2023-05-22T07:33:40.322Z,15.67
2023-05-22T07:34:44.355Z,15.62
2023-05-22T07:35:46.692Z,15.53
2023-05-22T07:36:49.537Z,15.63
2023-05-22T07:37:51.872Z,15.64
2023-05-22T07:38:54.175Z,15.65
2023-05-22T07:39:56.757Z,15.68
2023-05-22T07:40:59.031Z,15.68
2023-05-22T07:42:03.150Z,15.68
2023-05-22T07:43:07.666Z,15.70
2023-05-22T07:44:09.869Z,15.68
2023-05-22T07:45:13.680Z,15.67
2023-05-22T07:46:16.093Z,15.69
2023-05-22T07:47:29.005Z,15.70
2023-05-22T07:48:31.237Z,15.74
2023-05-22T07:49:34.031Z,15.74
2023-05-22T07:50:37.194Z,15.65
2023-05-22T07:51:41.008Z,15.64
2023-05-22T07:52:44.606Z,15.71
2023-05-22T07:53:47.089Z,15.75
2023-05-22T07:54:49.338Z,15.76
2023-05-22T07:55:52.633Z,15.72
2023-05-22T07:56:56.252Z,15.77
2023-05-22T07:57:59.510Z,15.76
2023-05-22T07:59:12.023Z,15.83
2023-05-22T08:00:14.834Z,15.86
2023-05-22T08:01:17.294Z,15.92
2023-05-22T08:02:19.751Z,15.94
2023-05-22T08:03:24.045Z,15.94
2023-05-22T08:04:26.814Z,15.96
2023-05-22T08:05:29.226Z,15.94
2023-05-22T08:06:31.612Z,15.97
2023-05-22T08:07:33.920Z,15.97
2023-05-22T08:08:36.428Z,15.90
2023-05-22T08:09:38.698Z,15.87
2023-05-22T08:10:58.224Z,15.92
2023-05-22T08:12:03.237Z,15.96
2023-05-22T08:13:08.201Z,15.94
2023-05-22T08:14:12.008Z,15.94
2023-05-22T08:15:18.524Z,15.87
2023-05-22T08:16:21.141Z,15.85
2023-05-22T08:17:23.390Z,15.81
2023-05-22T08:18:28.065Z,15.81
2023-05-22T08:19:30.314Z,15.84
2023-05-22T08:20:32.720Z,15.89
2023-05-22T08:21:35.910Z,15.83
2023-05-22T08:22:39.618Z,15.94
2023-05-22T08:23:41.806Z,15.93
2023-05-22T08:24:44.028Z,15.89
2023-05-22T08:25:46.252Z,15.94
2023-05-22T08:26:48.500Z,15.96
2023-05-22T08:27:50.877Z,16.02
2023-05-22T08:28:53.077Z,16.12
2023-05-22T08:29:56.263Z,16.23
2023-05-22T08:30:58.440Z,16.22
2023-05-22T08:32:00.878Z,16.30
2023-05-22T08:33:03.619Z,16.40
2023-05-22T08:34:07.247Z,16.50
2023-05-22T08:35:10.037Z,16.51
2023-05-22T08:36:13.286Z,16.57
2023-05-22T08:37:16.153Z,16.62
2023-05-22T08:38:18.829Z,16.69
2023-05-22T08:39:21.438Z,16.71
2023-05-22T08:40:24.501Z,16.82
2023-05-22T08:41:28.017Z,16.89
2023-05-22T08:42:30.445Z,16.93
2023-05-22T08:43:32.788Z,16.91
2023-05-22T08:44:35.213Z,17.01
2023-05-22T08:45:37.640Z,17.06
2023-05-22T08:46:41.774Z,17.10
2023-05-22T08:47:44.735Z,17.01
2023-05-22T08:48:47.873Z,17.12
2023-05-22T08:49:52.008Z,17.16
2023-05-22T08:50:57.552Z,17.19
2023-05-22T08:52:06.148Z,17.24
2023-05-22T08:53:11.289Z,17.15
2023-05-22T08:54:18.055Z,17.23
2023-05-22T08:55:20.494Z,17.21
2023-05-22T08:56:23.132Z,17.25
2023-05-22T08:57:26.779Z,17.35
2023-05-22T08:58:29.712Z,17.36
2023-05-22T08:59:32.290Z,17.32
2023-05-22T09:00:34.652Z,17.40
2023-05-22T09:01:37.535Z,17.46
2023-05-22T09:02:40.121Z,17.47
2023-05-22T09:03:42.886Z,17.46
2023-05-22T09:04:45.122Z,17.47
2023-05-22T09:05:47.348Z,17.49
2023-05-22T09:06:50.641Z,17.50
2023-05-22T09:07:56.606Z,17.52
2023-05-22T09:09:01.784Z,17.41
2023-05-22T09:10:05.770Z,17.39
2023-05-22T09:11:08.392Z,17.38
2023-05-22T09:12:10.782Z,17.22
2023-05-22T09:13:27.428Z,17.30
2023-05-22T09:14:39.393Z,17.21
2023-05-22T09:15:41.955Z,17.02
2023-05-22T09:16:49.102Z,17.16
2023-05-22T09:17:51.529Z,17.01
2023-05-22T09:18:53.989Z,17.03
2023-05-22T09:20:00.010Z,17.00
2023-05-22T09:21:04.904Z,16.87
2023-05-22T09:22:09.350Z,16.84
2023-05-22T09:23:17.942Z,16.87
2023-05-22T09:24:20.698Z,16.85
2023-05-22T09:25:23.237Z,16.89
2023-05-22T09:26:29.302Z,17.06
2023-05-22T09:27:32.013Z,17.04
2023-05-22T09:28:35.876Z,17.10
2023-05-22T09:30:08.810Z,17.23
2023-05-22T09:31:11.320Z,17.08
2023-05-22T09:32:14.922Z,17.16
2023-05-22T09:33:18.783Z,17.34
2023-05-22T09:34:22.564Z,17.29
2023-05-22T09:35:27.796Z,17.39
2023-05-22T09:36:33.082Z,17.44
2023-05-22T09:37:36.401Z,17.40
2023-05-22T09:38:39.796Z,17.44
2023-05-22T09:39:47.038Z,17.56
2023-05-22T09:40:54.430Z,17.56
2023-05-22T09:42:01.425Z,17.51
2023-05-22T09:43:11.381Z,17.57
2023-05-22T09:44:15.074Z,17.43
2023-05-22T09:45:22.933Z,17.46
2023-05-22T09:46:25.504Z,17.39
2023-05-22T09:47:27.827Z,17.45
2023-05-22T09:48:35.930Z,17.55
2023-05-22T09:49:47.124Z,17.65
2023-05-22T09:50:53.496Z,17.63
2023-05-22T09:51:57.426Z,17.58
2023-05-22T09:53:04.522Z,17.64
2023-05-22T09:54:09.428Z,17.62
2023-05-22T09:55:14.138Z,17.68
2023-05-22T09:56:24.267Z,17.64
2023-05-22T09:57:43.024Z,17.82
2023-05-22T09:58:47.686Z,17.75
2023-05-22T09:59:55.169Z,17.81
2023-05-22T10:00:58.218Z,17.71
2023-05-22T10:02:02.264Z,17.73
2023-05-22T10:03:16.114Z,17.90
2023-05-22T10:04:18.880Z,17.72
2023-05-22T10:05:22.808Z,17.80
2023-05-22T10:06:26.961Z,17.76
2023-05-22T10:07:37.461Z,17.84
2023-05-22T10:08:44.597Z,18.02
2023-05-22T10:09:52.397Z,17.83
2023-05-22T10:10:55.408Z,17.81
2023-05-22T10:12:00.764Z,17.92
2023-05-22T10:13:06.626Z,18.05
2023-05-22T10:14:09.524Z,18.01
2023-05-22T10:15:12.983Z,18.10
2023-05-22T10:16:16.839Z,18.16
2023-05-22T10:17:19.873Z,18.20
2023-05-22T10:18:22.209Z,18.06
2023-05-22T10:19:27.349Z,18.21
2023-05-22T10:20:30.574Z,18.18
2023-05-22T10:21:33.611Z,18.18
2023-05-22T10:22:38.120Z,18.35
2023-05-22T10:23:41.513Z,18.29
2023-05-22T10:24:46.269Z,18.25
2023-05-22T10:25:49.648Z,18.15
2023-05-22T10:26:54.476Z,18.13
2023-05-22T10:27:59.061Z,18.06
2023-05-22T10:29:09.748Z,18.20
2023-05-22T10:30:15.034Z,18.27
2023-05-22T10:31:46.091Z,18.28
2023-05-22T10:33:06.422Z,18.13
2023-05-22T10:34:13.029Z,18.21
2023-05-22T10:35:32.603Z,18.24
2023-05-22T10:37:13.235Z,18.33
2023-05-22T10:38:38.065Z,18.19
2023-05-22T10:39:49.407Z,18.35
2023-05-22T10:40:52.134Z,18.23
2023-05-22T10:41:54.525Z,18.14
2023-05-22T10:43:02.357Z,18.26
2023-05-22T10:44:04.708Z,18.22
2023-05-22T10:45:08.209Z,18.18
2023-05-22T10:46:13.075Z,18.24
2023-05-22T10:47:15.813Z,18.18
2023-05-22T10:48:23.022Z,18.10
2023-05-22T10:49:26.159Z,18.05
2023-05-22T10:50:28.502Z,17.99
2023-05-22T10:51:32.466Z,18.09
2023-05-22T10:52:35.989Z,18.05
2023-05-22T10:53:40.450Z,18.07
2023-05-22T10:54:44.440Z,18.09
2023-05-22T10:55:48.331Z,18.14
2023-05-22T10:56:50.752Z,18.20
2023-05-22T10:57:56.918Z,18.29
2023-05-22T10:59:08.160Z,18.27
2023-05-22T11:00:13.249Z,18.15
2023-05-22T11:01:21.250Z,18.21
2023-05-22T11:02:29.950Z,18.04
2023-05-22T11:03:50.917Z,18.07
2023-05-22T11:04:53.259Z,18.09
2023-05-22T11:05:55.518Z,18.12
2023-05-22T11:07:08.717Z,18.04
2023-05-22T11:08:11.928Z,18.03
2023-05-22T11:09:30.301Z,18.06
2023-05-22T11:10:51.801Z,18.14
2023-05-22T11:12:12.622Z,18.13
2023-05-22T11:13:14.661Z,18.19
2023-05-22T11:14:18.023Z,18.21
2023-05-22T11:15:30.687Z,18.17
2023-05-22T11:16:36.165Z,18.13
2023-05-22T11:17:51.366Z,18.20
2023-05-22T11:19:18.613Z,18.11
2023-05-22T11:20:30.710Z,18.26
2023-05-22T11:21:34.904Z,18.35
2023-05-22T11:22:39.646Z,18.38
2023-05-22T11:23:41.894Z,18.51
2023-05-22T11:24:44.048Z,18.51
2023-05-22T11:25:46.228Z,18.68
2023-05-22T11:27:01.259Z,18.77
2023-05-22T11:28:07.158Z,18.85
2023-05-22T11:29:09.363Z,18.97
2023-05-22T11:30:12.091Z,19.12
2023-05-22T11:31:15.181Z,19.14
2023-05-22T11:32:20.962Z,19.23
2023-05-22T11:33:23.787Z,19.46
2023-05-22T11:34:26.393Z,19.48
2023-05-22T11:35:28.973Z,19.42
2023-05-22T11:36:31.927Z,19.49
2023-05-22T11:37:38.018Z,19.60
2023-05-22T11:38:41.033Z,19.57
2023-05-22T11:39:43.191Z,19.66
2023-05-22T11:40:45.431Z,19.59
2023-05-22T11:41:47.633Z,19.66
2023-05-22T11:42:50.112Z,19.72
2023-05-22T11:43:52.127Z,19.73
2023-05-22T11:44:54.098Z,19.72
2023-05-22T11:46:00.521Z,19.74
2023-05-22T11:47:02.670Z,19.81
2023-05-22T11:48:04.733Z,19.71
2023-05-22T11:49:08.894Z,19.66
2023-05-22T11:50:11.751Z,19.82
2023-05-22T11:51:13.795Z,19.83
2023-05-22T11:52:16.267Z,20.00
2023-05-22T11:53:18.870Z,19.88
2023-05-22T11:54:22.191Z,19.88
2023-05-22T11:55:24.626Z,19.63
2023-05-22T11:56:27.015Z,19.83
2023-05-22T11:57:29.287Z,19.98
2023-05-22T11:58:32.072Z,19.94
2023-05-22T11:59:34.338Z,19.84
2023-05-22T12:00:36.524Z,19.91
2023-05-22T12:01:38.769Z,19.93
2023-05-22T12:02:47.805Z,19.98
2023-05-22T12:03:50.376Z,20.00
2023-05-22T12:04:55.965Z,20.02
2023-05-22T12:05:58.516Z,19.97
2023-05-22T12:07:00.868Z,19.86
2023-05-22T12:08:03.131Z,20.01
2023-05-22T12:09:07.244Z,20.08
2023-05-22T12:10:09.787Z,20.15
2023-05-22T12:11:12.899Z,20.12
2023-05-22T12:12:21.020Z,20.30
2023-05-22T12:13:28.110Z,20.36
2023-05-22T12:14:33.380Z,20.60
2023-05-22T12:15:39.571Z,20.69
2023-05-22T12:16:42.039Z,20.67
2023-05-22T12:17:44.484Z,20.76
2023-05-22T12:18:46.738Z,20.89
2023-05-22T12:19:48.969Z,21.01
2023-05-22T12:20:54.553Z,20.88
2023-05-22T12:21:57.290Z,20.96
2023-05-22T12:22:59.981Z,20.73
2023-05-22T12:24:06.419Z,20.77
2023-05-22T12:25:16.801Z,20.76
2023-05-22T12:26:19.515Z,20.90
2023-05-22T12:27:21.681Z,20.84
2023-05-22T12:28:23.949Z,20.88
2023-05-22T12:29:26.219Z,20.89
2023-05-22T12:30:28.388Z,21.02
2023-05-22T12:31:39.751Z,20.93
2023-05-22T12:32:47.020Z,21.05
2023-05-22T12:33:49.258Z,21.06
2023-05-22T12:34:51.540Z,21.04
2023-05-22T12:35:53.804Z,21.04
2023-05-22T12:36:56.147Z,21.08
2023-05-22T12:38:00.949Z,21.14
2023-05-22T12:39:07.208Z,21.36
2023-05-22T12:40:09.619Z,21.32
2023-05-22T12:41:11.807Z,21.21
2023-05-22T12:42:13.977Z,21.17
2023-05-22T12:43:16.420Z,21.20
2023-05-22T12:44:18.783Z,21.21
2023-05-22T12:45:21.110Z,21.46
2023-05-22T12:46:23.376Z,21.27
2023-05-22T12:47:26.063Z,21.41
2023-05-22T12:48:28.511Z,21.68
2023-05-22T12:49:30.747Z,21.82
2023-05-22T12:50:32.885Z,21.80
2023-05-22T12:51:35.349Z,21.67
2023-05-22T12:52:37.581Z,21.39
2023-05-22T12:53:39.690Z,21.35
2023-05-22T12:54:41.919Z,21.48
2023-05-22T12:55:44.344Z,21.34
2023-05-22T12:56:46.568Z,21.35
2023-05-22T12:57:49.102Z,21.23
2023-05-22T12:58:51.404Z,21.46
2023-05-22T12:59:53.772Z,21.45
2023-05-22T13:00:56.217Z,21.43
2023-05-22T13:02:02.336Z,21.50
2023-05-22T13:03:06.181Z,21.41
2023-05-22T13:04:08.563Z,21.41
2023-05-22T13:05:10.781Z,21.50
2023-05-22T13:06:13.053Z,21.64
2023-05-22T13:07:15.681Z,21.52
2023-05-22T13:08:18.055Z,21.70
2023-05-22T13:09:21.114Z,21.58
2023-05-22T13:10:23.402Z,21.66
2023-05-22T13:11:26.651Z,21.39
2023-05-22T13:12:31.000Z,21.54
2023-05-22T13:13:33.301Z,21.71
2023-05-22T13:14:35.654Z,21.63
2023-05-22T13:15:37.944Z,21.78
2023-05-22T13:16:40.817Z,21.83
2023-05-22T13:17:43.127Z,22.06
2023-05-22T13:18:46.189Z,22.17
2023-05-22T13:19:48.388Z,22.24
2023-05-22T13:20:50.649Z,22.35
2023-05-22T13:21:52.688Z,22.40
2023-05-22T13:22:55.002Z,22.64
2023-05-22T13:23:57.244Z,22.77
2023-05-22T13:24:59.601Z,22.95
2023-05-22T13:26:02.255Z,22.85
2023-05-22T13:27:04.767Z,22.99
2023-05-22T13:28:07.002Z,23.15
2023-05-22T13:29:09.296Z,23.35
2023-05-22T13:30:11.692Z,23.40
2023-05-22T13:31:14.046Z,23.25
2023-05-22T13:32:16.221Z,23.43
2023-05-22T13:33:18.488Z,23.63
2023-05-22T13:34:21.012Z,23.73
2023-05-22T13:35:23.558Z,23.78
2023-05-22T13:36:25.918Z,24.01
2023-05-22T13:37:28.272Z,24.21
2023-05-22T13:38:30.663Z,24.41
2023-05-22T13:39:32.891Z,24.82
2023-05-22T13:40:35.252Z,24.91
2023-05-22T13:41:37.447Z,24.95
2023-05-22T13:42:39.928Z,25.04
2023-05-22T13:43:42.298Z,24.94
2023-05-22T13:44:44.842Z,24.85
2023-05-22T13:45:48.176Z,25.04
2023-05-22T13:46:50.695Z,25.09
2023-05-22T13:47:53.331Z,24.96
2023-05-22T13:48:55.549Z,25.04
2023-05-22T13:49:57.833Z,25.02
2023-05-22T13:51:00.117Z,24.93
2023-05-22T13:52:02.417Z,25.24
2023-05-22T13:53:04.565Z,25.57
2023-05-22T13:54:06.770Z,25.60